Time;durP1;ratioP1;P1;durP2;ratioP2;P2;SDS_P1;SDS_P2;PMS_P1;PMS_P2;Temp;Humidity;BMP_temperature;BMP_pressure;BME280_temperature;BME280_humidity;BME280_pressure;Samples;Min_cycle;Max_cycle;Signal;HPM_P1;HPM_P2
2022/05/15 00:00:52;;;;;;;16.55;6.35;;;14.10;99.90;;;;;;5030053;28;20816;-55
2022/05/15 00:03:23;;;;;;;16.77;5.90;;;14.10;99.90;;;;;;5028041;28;20391;-53
2022/05/15 00:06:00;;;;;;;15.00;5.70;;;14.10;99.90;;;;;;5029517;28;20393;-56
2022/05/15 00:08:28;;;;;;;14.10;5.88;;;14.00;99.90;;;;;;5028942;28;20406;-55
2022/05/15 00:10:55;;;;;;;15.10;6.00;;;14.00;99.90;;;;;;5031225;28;20599;-55
2022/05/15 00:13:23;;;;;;;17.88;6.25;;;14.00;99.90;;;;;;5030664;28;20391;-55
2022/05/15 00:15:49;;;;;;;14.65;6.13;;;14.10;99.90;;;;;;5029226;28;20762;-54
2022/05/15 00:18:16;;;;;;;19.90;6.63;;;14.00;99.90;;;;;;5029398;28;20470;-55
2022/05/15 00:20:42;;;;;;;15.02;5.93;;;13.90;99.90;;;;;;5029871;28;20422;-55
2022/05/15 00:23:09;;;;;;;14.77;5.90;;;13.90;99.90;;;;;;5028163;28;20393;-55
2022/05/15 00:25:35;;;;;;;14.38;5.55;;;13.90;99.90;;;;;;5028424;28;20387;-56
2022/05/15 00:28:01;;;;;;;17.20;5.88;;;13.80;99.90;;;;;;5027013;28;20378;-55
2022/05/15 00:30:26;;;;;;;16.88;6.00;;;13.80;99.90;;;;;;5028156;28;20394;-56
2022/05/15 00:32:52;;;;;;;15.20;5.90;;;13.80;99.90;;;;;;5033379;28;20445;-56
2022/05/15 00:35:19;;;;;;;15.60;5.90;;;13.80;99.90;;;;;;5033387;28;20399;-54
2022/05/15 00:37:45;;;;;;;16.38;6.03;;;13.80;99.90;;;;;;5034008;28;20403;-51
2022/05/15 00:40:12;;;;;;;16.15;5.93;;;13.80;99.90;;;;;;5033557;28;20925;-55
2022/05/15 00:42:37;;;;;;;16.02;5.70;;;13.80;99.90;;;;;;5036227;28;20399;-56
2022/05/15 00:45:05;;;;;;;16.20;6.45;;;13.70;99.90;;;;;;5036326;28;20383;-57
2022/05/15 00:47:30;;;;;;;16.08;6.28;;;13.70;99.90;;;;;;5035797;28;20390;-53
2022/05/15 00:49:56;;;;;;;17.05;6.00;;;13.70;99.90;;;;;;5035877;28;20382;-56
2022/05/15 00:52:28;;;;;;;15.23;5.95;;;13.60;99.90;;;;;;5034668;28;20690;-56
2022/05/15 00:55:02;;;;;;;16.38;6.28;;;13.50;99.90;;;;;;5035390;28;20679;-51
2022/05/15 00:57:43;;;;;;;14.37;6.30;;;13.50;99.90;;;;;;5037222;28;20736;-56
2022/05/15 01:00:11;;;;;;;14.88;5.95;;;13.40;99.90;;;;;;5040339;28;20393;-53
2022/05/15 01:02:44;;;;;;;13.68;5.68;;;13.50;99.90;;;;;;5038557;28;20473;-55
2022/05/15 01:05:12;;;;;;;13.07;5.63;;;13.50;99.90;;;;;;5056003;28;20421;-52
2022/05/15 01:07:38;;;;;;;15.30;5.60;;;13.50;99.90;;;;;;5055256;28;20442;-55
2022/05/15 01:10:05;;;;;;;15.63;6.17;;;13.40;99.90;;;;;;5036591;28;20408;-56
2022/05/15 01:12:33;;;;;;;15.68;5.72;;;13.50;99.90;;;;;;5054449;28;20794;-54
2022/05/15 01:14:59;;;;;;;15.10;6.23;;;13.40;99.90;;;;;;5037186;28;20420;-52
2022/05/15 01:17:25;;;;;;;12.70;5.60;;;13.40;99.90;;;;;;5037583;28;20421;-52
2022/05/15 01:20:12;;;;;;;17.33;6.40;;;13.30;99.90;;;;;;5037603;28;20404;-55
2022/05/15 01:22:37;;;;;;;14.95;6.00;;;13.30;99.90;;;;;;5036488;28;20404;-55
2022/05/15 01:25:11;;;;;;;15.57;5.97;;;13.20;99.90;;;;;;5035365;28;20766;-54
2022/05/15 01:27:36;;;;;;;16.30;6.20;;;13.20;99.90;;;;;;5036473;28;20436;-50
2022/05/15 01:30:05;;;;;;;14.40;6.27;;;13.20;99.90;;;;;;5035499;28;20393;-55
2022/05/15 01:32:31;;;;;;;16.25;5.97;;;13.10;99.90;;;;;;5053245;28;20487;-55
2022/05/15 01:34:57;;;;;;;15.90;6.38;;;13.10;99.90;;;;;;5036163;28;20673;-56
2022/05/15 01:37:22;;;;;;;14.95;6.05;;;13.10;99.90;;;;;;5037388;28;20836;-54
2022/05/15 01:39:48;;;;;;;16.70;6.40;;;13.10;99.90;;;;;;5035685;28;20432;-55
2022/05/15 01:42:13;;;;;;;17.80;6.63;;;13.20;99.90;;;;;;5035076;28;20673;-52
2022/05/15 01:44:40;;;;;;;16.08;6.20;;;13.10;99.90;;;;;;5052511;28;20403;-57
2022/05/15 01:47:06;;;;;;;18.88;6.63;;;13.10;99.90;;;;;;5035139;28;20393;-53
2022/05/15 01:49:32;;;;;;;16.42;6.70;;;13.00;99.90;;;;;;5035763;28;20488;-56
2022/05/15 01:51:58;;;;;;;12.18;5.82;;;12.90;99.90;;;;;;5035736;28;20755;-59
2022/05/15 01:54:23;;;;;;;16.83;6.73;;;12.90;99.90;;;;;;5036085;28;20393;-53
2022/05/15 01:56:49;;;;;;;15.27;6.63;;;12.90;99.90;;;;;;5033710;28;20427;-53
2022/05/15 01:59:14;;;;;;;14.98;6.40;;;12.90;99.90;;;;;;5036302;28;20383;-54
2022/05/15 02:01:40;;;;;;;14.40;6.30;;;12.90;99.90;;;;;;5035900;28;20413;-53
2022/05/15 02:04:07;;;;;;;14.48;6.18;;;12.90;99.90;;;;;;5031309;28;20706;-57
2022/05/15 02:06:33;;;;;;;15.30;6.55;;;12.90;99.90;;;;;;5030581;28;20412;-53
2022/05/15 02:08:59;;;;;;;13.90;6.18;;;12.80;99.90;;;;;;5029995;28;20401;-54
2022/05/15 02:11:24;;;;;;;15.10;6.17;;;12.80;99.90;;;;;;5028722;28;20383;-55
2022/05/15 02:13:50;;;;;;;13.98;5.95;;;12.70;99.90;;;;;;5030850;28;20504;-57
2022/05/15 02:16:16;;;;;;;17.47;6.00;;;12.70;99.90;;;;;;5031658;28;20478;-54
2022/05/15 02:18:41;;;;;;;13.83;6.47;;;12.60;99.90;;;;;;5031719;28;20391;-53
2022/05/15 02:21:07;;;;;;;15.68;6.68;;;12.70;99.90;;;;;;5031050;28;20500;-55
2022/05/15 02:23:33;;;;;;;14.77;6.20;;;12.60;99.90;;;;;;5031723;28;20447;-52
2022/05/15 02:25:58;;;;;;;14.07;6.13;;;12.50;99.90;;;;;;5032460;28;20541;-55
2022/05/15 02:28:24;;;;;;;17.17;6.80;;;12.50;99.90;;;;;;5030595;28;20453;-55
2022/05/15 02:30:50;;;;;;;15.50;6.60;;;12.50;99.90;;;;;;5031190;28;20398;-56
2022/05/15 02:33:16;;;;;;;14.73;6.33;;;12.60;99.90;;;;;;5030422;28;20728;-56
2022/05/15 02:35:42;;;;;;;16.45;6.60;;;12.50;99.90;;;;;;5030630;28;20383;-57
2022/05/15 02:38:07;;;;;;;14.20;6.37;;;12.50;99.90;;;;;;5030064;28;20383;-57
2022/05/15 02:40:33;;;;;;;15.77;6.70;;;12.50;99.90;;;;;;5030180;28;20482;-53
2022/05/15 02:42:59;;;;;;;14.40;6.75;;;12.40;99.90;;;;;;5030800;28;20803;-55
2022/05/15 02:45:25;;;;;;;13.57;5.77;;;12.40;99.90;;;;;;5034352;28;20690;-53
2022/05/15 02:47:51;;;;;;;16.20;6.80;;;12.40;99.90;;;;;;5033973;28;20393;-54
2022/05/15 02:53:02;;;;;;;17.35;6.75;;;12.40;99.90;;;;;;5033637;28;20448;-53
2022/05/15 02:55:27;;;;;;;14.70;6.22;;;12.30;99.90;;;;;;5032409;28;20426;-54
2022/05/15 02:57:53;;;;;;;16.57;6.90;;;12.30;99.90;;;;;;5032048;28;20971;-59
2022/05/15 03:00:22;;;;;;;16.08;7.13;;;12.20;99.90;;;;;;5031743;28;20386;-56
2022/05/15 03:02:48;;;;;;;15.30;7.30;;;12.20;99.90;;;;;;5032341;28;20474;-56
2022/05/15 03:05:17;;;;;;;14.67;7.07;;;12.20;99.90;;;;;;5032422;28;20541;-52
2022/05/15 03:07:43;;;;;;;15.13;7.28;;;12.20;99.90;;;;;;5030492;28;20394;-57
2022/05/15 03:10:11;;;;;;;16.00;7.22;;;12.10;99.90;;;;;;5033459;28;20496;-54
2022/05/15 03:12:37;;;;;;;15.82;6.70;;;12.10;99.90;;;;;;5033619;28;20637;-52
2022/05/15 03:15:05;;;;;;;16.88;7.60;;;12.10;99.90;;;;;;5033555;28;20820;-54
2022/05/15 03:17:32;;;;;;;15.10;6.93;;;12.00;99.90;;;;;;5034559;28;20496;-52
2022/05/15 03:19:57;;;;;;;17.02;7.18;;;11.90;99.90;;;;;;5033427;28;20387;-55
2022/05/15 03:22:23;;;;;;;15.57;7.13;;;11.90;99.90;;;;;;5031191;28;20410;-55
2022/05/15 03:24:48;;;;;;;14.75;6.82;;;11.90;99.90;;;;;;5033131;28;20432;-54
2022/05/15 03:27:14;;;;;;;17.02;6.93;;;11.90;99.90;;;;;;5033864;28;20417;-57
2022/05/15 03:29:40;;;;;;;13.23;6.65;;;11.90;99.90;;;;;;5032351;28;20399;-55
2022/05/15 03:32:06;;;;;;;15.87;7.83;;;11.90;99.90;;;;;;5031613;28;20664;-51
2022/05/15 03:34:31;;;;;;;15.35;6.63;;;11.90;99.90;;;;;;5030231;28;20394;-55
2022/05/15 03:36:57;;;;;;;17.02;6.85;;;11.90;99.90;;;;;;5030997;28;20414;-53
2022/05/15 03:39:23;;;;;;;15.00;7.17;;;11.90;99.90;;;;;;5027706;28;20395;-55
2022/05/15 03:41:49;;;;;;;14.30;7.13;;;11.90;99.90;;;;;;5029784;28;20763;-51
2022/05/15 03:44:16;;;;;;;17.52;7.38;;;11.90;99.90;;;;;;5028211;28;20382;-56
2022/05/15 03:46:43;;;;;;;16.63;7.28;;;11.90;99.90;;;;;;5029120;28;20510;-57
2022/05/15 03:49:21;;;;;;;15.10;7.22;;;11.90;99.90;;;;;;5032972;28;20816;-55
2022/05/15 03:51:47;;;;;;;18.77;7.50;;;11.90;99.90;;;;;;5029898;28;20783;-54
2022/05/15 03:54:12;;;;;;;15.73;7.07;;;11.90;99.90;;;;;;5032197;28;20399;-55
2022/05/15 03:56:51;;;;;;;14.77;6.80;;;11.90;99.90;;;;;;5031779;28;20442;-53
2022/05/15 03:59:20;;;;;;;13.60;6.90;;;11.90;99.90;;;;;;5028967;28;20486;-52
2022/05/15 04:01:45;;;;;;;12.77;6.80;;;11.90;99.90;;;;;;5027778;28;20818;-55
2022/05/15 04:04:11;;;;;;;14.60;7.17;;;11.80;99.90;;;;;;5030514;28;20422;-56
2022/05/15 04:06:37;;;;;;;16.38;7.13;;;11.80;99.90;;;;;;5028684;28;20398;-53
2022/05/15 04:09:04;;;;;;;15.00;7.10;;;11.80;99.90;;;;;;5032814;28;20694;-57
2022/05/15 04:11:29;;;;;;;12.77;7.03;;;11.80;99.90;;;;;;5033037;28;20387;-57
2022/05/15 04:13:55;;;;;;;12.63;6.80;;;11.80;99.90;;;;;;5030035;28;20383;-55
2022/05/15 04:16:20;;;;;;;15.98;7.18;;;11.80;99.90;;;;;;5030793;28;20439;-51
2022/05/15 04:18:46;;;;;;;14.33;7.13;;;11.90;99.90;;;;;;5029571;28;20447;-55
2022/05/15 04:21:11;;;;;;;13.70;7.07;;;11.90;99.90;;;;;;5028650;28;20386;-53
2022/05/15 04:23:37;;;;;;;13.90;6.30;;;11.90;99.90;;;;;;5029174;28;20449;-57
2022/05/15 04:26:03;;;;;;;12.05;6.50;;;11.90;99.90;;;;;;5030633;28;20398;-55
2022/05/15 04:28:29;;;;;;;16.10;7.25;;;11.90;99.90;;;;;;5031937;28;20398;-52
2022/05/15 04:30:55;;;;;;;14.68;6.93;;;11.90;99.90;;;;;;5033306;28;20390;-56
2022/05/15 04:33:20;;;;;;;16.10;7.20;;;11.90;99.90;;;;;;5034073;28;20387;-54
2022/05/15 04:35:46;;;;;;;14.03;6.83;;;11.90;99.90;;;;;;5032835;28;20399;-52
2022/05/15 04:38:12;;;;;;;16.23;7.45;;;11.90;99.90;;;;;;5034465;28;20588;-56
2022/05/15 04:40:37;;;;;;;17.25;7.45;;;11.90;99.90;;;;;;5036523;28;20399;-56
2022/05/15 04:43:03;;;;;;;13.83;7.33;;;12.00;99.90;;;;;;5037301;28;20391;-54
2022/05/15 04:45:29;;;;;;;14.90;7.40;;;12.00;99.90;;;;;;5034642;28;20459;-53
2022/05/15 04:47:55;;;;;;;15.73;7.73;;;12.00;99.90;;;;;;5035558;28;20415;-53
2022/05/15 04:50:21;;;;;;;16.80;7.97;;;12.10;99.90;;;;;;5034676;28;20395;-54
2022/05/15 04:52:47;;;;;;;14.30;7.17;;;12.10;99.90;;;;;;5033432;28;20388;-53
2022/05/15 04:55:13;;;;;;;15.63;7.43;;;12.20;99.90;;;;;;5031684;28;20687;-52
2022/05/15 04:57:39;;;;;;;15.73;7.55;;;12.20;99.90;;;;;;5032092;28;20409;-53
2022/05/15 05:00:11;;;;;;;17.75;7.88;;;12.30;99.90;;;;;;5032050;28;20382;-55
2022/05/15 05:02:36;;;;;;;17.47;7.60;;;12.30;99.90;;;;;;5030298;28;20379;-53
2022/05/15 05:05:02;;;;;;;17.37;7.10;;;12.30;99.90;;;;;;5031653;28;20667;-53
2022/05/15 05:07:28;;;;;;;15.67;7.40;;;12.30;99.90;;;;;;5031067;28;20391;-54
2022/05/15 05:09:55;;;;;;;16.30;7.25;;;12.40;99.90;;;;;;5032694;28;20406;-54
2022/05/15 05:12:21;;;;;;;14.85;7.28;;;12.40;99.90;;;;;;5033641;28;20489;-54
2022/05/15 05:14:47;;;;;;;14.95;7.35;;;12.40;99.90;;;;;;5034330;28;20399;-56
2022/05/15 05:17:13;;;;;;;20.10;8.32;;;12.40;99.90;;;;;;5035929;28;20448;-55
2022/05/15 05:19:39;;;;;;;17.95;7.75;;;12.40;99.90;;;;;;5032616;28;20667;-52
2022/05/15 05:22:05;;;;;;;18.40;8.20;;;12.40;99.90;;;;;;5035759;28;20462;-55
2022/05/15 05:24:31;;;;;;;17.25;6.97;;;12.40;99.90;;;;;;5034764;28;20410;-55
2022/05/15 05:26:56;;;;;;;18.30;7.60;;;12.40;99.90;;;;;;5035120;28;20395;-56
2022/05/15 05:29:22;;;;;;;18.40;8.17;;;12.40;99.90;;;;;;5035643;28;20390;-52
2022/05/15 05:31:49;;;;;;;18.65;7.72;;;12.50;99.90;;;;;;5034052;28;20453;-53
2022/05/15 05:34:15;;;;;;;16.50;7.60;;;12.60;99.90;;;;;;5032998;28;20454;-54
2022/05/15 05:36:41;;;;;;;16.60;6.88;;;12.60;99.90;;;;;;5032251;28;20407;-52
2022/05/15 05:39:07;;;;;;;13.50;6.53;;;12.50;99.90;;;;;;5028937;28;20476;-57
2022/05/15 05:41:32;;;;;;;16.30;7.55;;;12.60;99.90;;;;;;5028272;28;20686;-56
2022/05/15 05:44:00;;;;;;;18.33;6.97;;;12.60;99.90;;;;;;5028056;28;20624;-54
2022/05/15 05:46:26;;;;;;;12.93;5.78;;;12.60;99.90;;;;;;5027030;28;20391;-52
2022/05/15 05:48:51;;;;;;;11.60;5.70;;;12.60;99.90;;;;;;5028742;28;20516;-54
2022/05/15 05:51:17;;;;;;;13.87;5.57;;;12.60;99.90;;;;;;5028763;28;20423;-54
2022/05/15 05:53:58;;;;;;;14.30;5.70;;;12.70;99.90;;;;;;5030210;28;20406;-56
2022/05/15 05:56:23;;;;;;;11.25;5.10;;;12.80;99.90;;;;;;5031171;28;20467;-53
2022/05/15 05:58:49;;;;;;;10.93;4.33;;;12.80;99.90;;;;;;5031216;28;20415;-55
2022/05/15 06:01:14;;;;;;;13.90;5.10;;;12.80;99.90;;;;;;5031219;28;20683;-55
2022/05/15 06:06:43;;;;;;;11.13;4.65;;;12.90;99.90;;;;;;5033740;28;20387;-56
2022/05/15 06:09:09;;;;;;;12.55;4.22;;;12.80;99.90;;;;;;5033088;28;20398;-53
2022/05/15 06:15:03;;;;;;;9.48;3.42;;;12.90;99.90;;;;;;5033348;28;20363;-55
2022/05/15 06:17:29;;;;;;;7.60;3.40;;;13.00;99.90;;;;;;5030508;28;20842;-51
2022/05/15 06:19:56;;;;;;;9.32;3.65;;;13.10;99.90;;;;;;5029658;28;20414;-56
2022/05/15 06:22:22;;;;;;;8.60;3.50;;;13.10;99.90;;;;;;5029150;28;20394;-52
2022/05/15 06:24:48;;;;;;;7.40;3.17;;;13.10;99.90;;;;;;5027687;28;20419;-54
2022/05/15 06:27:14;;;;;;;4.95;2.50;;;13.20;99.90;;;;;;5027826;28;20401;-52
2022/05/15 06:29:41;;;;;;;5.95;2.60;;;13.20;99.90;;;;;;5027610;28;20387;-56
2022/05/15 06:32:08;;;;;;;6.35;2.42;;;13.30;99.90;;;;;;5026712;28;20465;-51
2022/05/15 06:34:34;;;;;;;4.78;2.22;;;13.30;99.90;;;;;;5026412;28;20469;-55
2022/05/15 06:36:59;;;;;;;5.13;1.88;;;13.30;99.90;;;;;;5027814;28;20556;-53
2022/05/15 06:39:25;;;;;;;5.18;1.90;;;13.40;99.90;;;;;;5028064;28;20399;-54
2022/05/15 06:41:51;;;;;;;3.70;2.13;;;13.50;99.90;;;;;;5028940;28;20383;-55
2022/05/15 06:44:20;;;;;;;5.50;2.30;;;13.50;99.90;;;;;;5030531;28;20472;-52
2022/05/15 06:46:46;;;;;;;3.55;1.70;;;13.50;99.90;;;;;;5031949;28;20490;-56
2022/05/15 06:49:12;;;;;;;3.95;1.70;;;13.50;99.90;;;;;;5031772;28;20443;-55
2022/05/15 06:51:38;;;;;;;5.32;1.65;;;13.60;99.90;;;;;;5031481;28;20485;-56
2022/05/15 06:54:04;;;;;;;3.42;1.60;;;13.60;99.90;;;;;;5029792;28;20531;-54
2022/05/15 06:59:13;;;;;;;7.80;2.05;;;13.70;99.90;;;;;;5031270;28;20815;-55
2022/05/15 07:01:39;;;;;;;3.90;1.80;;;13.70;99.90;;;;;;5029175;28;20391;-54
2022/05/15 07:04:05;;;;;;;4.00;1.80;;;13.70;99.90;;;;;;5028187;28;20395;-56
2022/05/15 07:06:31;;;;;;;3.75;1.55;;;13.80;99.90;;;;;;5028686;28;20407;-56
2022/05/15 07:08:56;;;;;;;6.00;2.00;;;13.90;99.90;;;;;;5025583;28;20806;-54
2022/05/15 07:11:23;;;;;;;5.82;2.28;;;14.00;99.90;;;;;;5027592;28;20699;-53
2022/05/15 07:13:48;;;;;;;2.70;1.50;;;13.90;99.90;;;;;;5026291;28;20387;-53
2022/05/15 07:16:14;;;;;;;3.28;1.70;;;13.90;99.90;;;;;;5025739;28;20729;-54
2022/05/15 07:18:41;;;;;;;3.50;1.77;;;14.00;99.90;;;;;;5024063;28;21008;-53
2022/05/15 07:21:07;;;;;;;1.52;1.27;;;14.10;99.90;;;;;;5024393;28;20393;-55
2022/05/15 07:23:36;;;;;;;3.87;2.10;;;14.20;99.90;;;;;;5027857;28;20826;-52
2022/05/15 07:26:02;;;;;;;4.80;1.63;;;14.20;99.90;;;;;;5028423;28;20490;-53
2022/05/15 07:28:28;;;;;;;4.57;1.95;;;14.20;99.90;;;;;;5026819;28;20398;-54
2022/05/15 07:30:53;;;;;;;3.67;1.70;;;14.30;99.90;;;;;;5025968;28;20691;-53
2022/05/15 07:33:20;;;;;;;3.60;1.70;;;14.30;99.90;;;;;;5026796;28;20869;-52
2022/05/15 07:35:46;;;;;;;3.08;1.45;;;14.30;99.90;;;;;;5023056;28;20738;-56
2022/05/15 07:38:12;;;;;;;2.20;1.07;;;14.40;99.90;;;;;;5026358;28;20574;-55
2022/05/15 07:40:37;;;;;;;2.50;1.40;;;14.40;99.90;;;;;;5023046;28;20410;-52
2022/05/15 07:43:08;;;;;;;2.50;1.08;;;14.50;99.90;;;;;;5024254;28;20387;-55
2022/05/15 07:45:40;;;;;;;1.70;1.02;;;14.60;99.90;;;;;;5026136;28;20394;-53
2022/05/15 07:48:06;;;;;;;1.90;0.90;;;14.60;99.90;;;;;;5026773;28;20565;-54
2022/05/15 07:50:37;;;;;;;4.25;1.40;;;14.70;99.90;;;;;;5026503;28;20715;-57
2022/05/15 07:53:03;;;;;;;2.58;0.90;;;14.70;99.90;;;;;;5027302;28;20490;-53
2022/05/15 07:55:28;;;;;;;2.07;1.00;;;14.70;99.90;;;;;;5027452;28;20737;-53
2022/05/15 07:58:09;;;;;;;2.27;1.03;;;14.70;99.90;;;;;;5028388;28;20518;-51
2022/05/15 08:00:47;;;;;;;2.70;1.10;;;14.80;99.90;;;;;;5028916;28;20887;-57
2022/05/15 08:03:13;;;;;;;1.30;0.68;;;14.80;99.90;;;;;;5027983;28;20402;-58
2022/05/15 08:08:26;;;;;;;2.17;1.10;;;14.80;99.90;;;;;;5028764;28;20572;-56
2022/05/15 08:10:52;;;;;;;1.47;0.93;;;15.00;99.90;;;;;;5027765;28;20897;-56
2022/05/15 08:13:23;;;;;;;1.52;0.82;;;15.00;99.90;;;;;;5031854;28;21026;-54
2022/05/15 08:15:48;;;;;;;1.30;0.85;;;15.10;99.90;;;;;;5032748;28;20456;-50
2022/05/15 08:23:56;;;;;;;0.88;0.75;;;15.30;99.90;;;;;;5033732;28;20675;-52
2022/05/15 08:26:22;;;;;;;1.92;0.80;;;15.30;99.90;;;;;;5029750;28;20378;-54
2022/05/15 08:28:49;;;;;;;0.80;0.50;;;15.40;99.90;;;;;;5024407;28;20762;-52
2022/05/15 08:31:17;;;;;;;2.38;0.95;;;15.40;99.90;;;;;;5027673;28;20398;-55
2022/05/15 08:33:43;;;;;;;3.17;0.97;;;15.40;99.90;;;;;;5027321;28;20399;-55
2022/05/15 08:36:15;;;;;;;1.85;0.80;;;15.50;99.90;;;;;;5025890;28;20482;-55
2022/05/15 08:38:50;;;;;;;1.13;0.73;;;15.50;99.90;;;;;;5023706;28;20383;-52
2022/05/15 08:41:46;;;;;;;1.67;0.90;;;15.50;99.90;;;;;;5025756;28;20496;-57
2022/05/15 08:44:29;;;;;;;1.42;0.70;;;15.30;99.90;;;;;;5025515;28;20663;-56
2022/05/15 08:47:32;;;;;;;1.65;1.02;;;15.30;99.90;;;;;;5024379;28;20636;-52
2022/05/15 08:50:07;;;;;;;0.95;0.80;;;15.50;99.90;;;;;;5031081;28;20474;-54
2022/05/15 08:52:53;;;;;;;2.22;0.90;;;15.60;99.90;;;;;;5032788;28;20378;-52
2022/05/15 08:55:34;;;;;;;1.48;0.90;;;15.70;99.90;;;;;;5033466;28;21096;-64
2022/05/15 08:58:00;;;;;;;1.33;0.70;;;15.70;99.90;;;;;;5035062;28;20920;-66
2022/05/15 09:00:34;;;;;;;1.42;0.80;;;15.80;99.90;;;;;;5032843;28;20984;-64
2022/05/15 09:03:17;;;;;;;1.27;0.90;;;15.90;99.90;;;;;;5029541;28;20508;-64
2022/05/15 09:06:01;;;;;;;2.20;1.00;;;16.10;99.90;;;;;;5029331;28;20481;-64
2022/05/15 09:08:51;;;;;;;2.17;1.00;;;16.10;99.90;;;;;;5029943;28;20391;-66
2022/05/15 09:11:37;;;;;;;2.63;0.95;;;16.20;99.90;;;;;;5029199;28;20770;-66
2022/05/15 09:14:53;;;;;;;1.10;0.80;;;16.20;99.90;;;;;;5029493;28;20629;-66
2022/05/15 09:17:34;;;;;;;0.70;0.50;;;16.20;99.90;;;;;;5032052;28;20442;-55
2022/05/15 09:20:06;;;;;;;2.40;0.90;;;16.30;99.90;;;;;;5032986;28;20391;-52
2022/05/15 09:22:37;;;;;;;1.25;0.70;;;16.30;99.90;;;;;;5032374;28;20394;-57
2022/05/15 09:25:23;;;;;;;1.30;0.77;;;16.40;99.90;;;;;;5033470;28;20430;-55
2022/05/15 09:28:06;;;;;;;1.42;0.80;;;16.40;99.90;;;;;;5033401;28;20386;-56
2022/05/15 09:30:42;;;;;;;1.48;0.70;;;16.40;99.90;;;;;;5032079;28;20480;-52
2022/05/15 09:33:31;;;;;;;1.23;0.80;;;16.40;99.90;;;;;;5032130;28;20403;-55
2022/05/15 09:36:30;;;;;;;1.70;0.70;;;16.40;99.90;;;;;;5030315;28;20398;-55
2022/05/15 09:39:25;;;;;;;0.73;0.60;;;16.50;99.90;;;;;;5030871;28;20383;-54
2022/05/15 09:44:57;;;;;;;1.10;0.80;;;16.60;99.90;;;;;;5033633;28;20709;-57
2022/05/15 09:47:32;;;;;;;1.50;0.85;;;16.60;99.90;;;;;;5033237;28;20394;-53
2022/05/15 09:49:59;;;;;;;1.50;0.77;;;16.60;99.90;;;;;;5033538;28;20825;-55
2022/05/15 09:52:47;;;;;;;1.20;0.80;;;16.70;99.90;;;;;;5033645;28;20399;-57
2022/05/15 09:55:22;;;;;;;2.58;1.10;;;16.70;99.90;;;;;;5032647;28;20505;-56
2022/05/15 09:58:18;;;;;;;1.63;0.90;;;16.90;99.90;;;;;;5033746;28;20800;-57
2022/05/15 10:00:44;;;;;;;1.25;0.60;;;16.90;99.90;;;;;;5032743;28;20395;-55
2022/05/15 10:03:24;;;;;;;1.20;0.60;;;17.00;99.90;;;;;;5033515;28;20753;-54
2022/05/15 10:06:09;;;;;;;2.25;0.80;;;17.00;99.90;;;;;;5032987;28;20799;-55
2022/05/15 10:08:35;;;;;;;1.45;0.70;;;17.00;99.90;;;;;;5032988;28;20775;-54
2022/05/15 10:11:10;;;;;;;2.00;0.80;;;17.10;99.90;;;;;;5031914;28;20394;-57
2022/05/15 10:13:37;;;;;;;1.00;0.70;;;17.10;99.90;;;;;;5034597;28;20457;-55
2022/05/15 10:16:23;;;;;;;1.10;0.65;;;17.00;99.90;;;;;;5034222;28;20379;-56
2022/05/15 10:19:00;;;;;;;1.23;0.60;;;17.00;99.90;;;;;;5032919;28;21227;-55
2022/05/15 10:21:40;;;;;;;1.60;0.80;;;17.10;99.90;;;;;;5033834;28;20548;-55
2022/05/15 10:24:13;;;;;;;0.85;0.60;;;17.20;99.90;;;;;;5033250;28;20391;-55
2022/05/15 10:26:58;;;;;;;2.15;0.90;;;17.20;99.90;;;;;;5033537;28;20566;-57
2022/05/15 10:29:43;;;;;;;1.15;0.70;;;17.30;99.90;;;;;;5033191;28;20795;-55
2022/05/15 10:32:17;;;;;;;2.70;0.90;;;17.30;99.90;;;;;;5032858;28;20407;-57
2022/05/15 10:34:43;;;;;;;1.77;0.95;;;17.30;99.90;;;;;;5031248;28;20386;-56
2022/05/15 10:37:36;;;;;;;1.02;0.60;;;17.10;99.90;;;;;;5031055;28;20407;-56
2022/05/15 10:40:19;;;;;;;2.00;0.90;;;17.10;99.90;;;;;;5031536;28;20383;-55
2022/05/15 10:42:54;;;;;;;2.27;1.00;;;17.20;99.90;;;;;;5030387;28;20386;-56
2022/05/15 10:46:03;;;;;;;1.77;0.80;;;17.30;99.90;;;;;;5030000;28;20868;-57
2022/05/15 10:49:10;;;;;;;1.83;0.90;;;17.40;99.90;;;;;;5029738;28;20429;-57
2022/05/15 10:51:44;;;;;;;1.55;1.02;;;17.50;99.90;;;;;;5030624;28;20390;-54
2022/05/15 10:57:33;;;;;;;1.83;1.02;;;17.80;99.90;;;;;;5031616;28;20418;-54
2022/05/15 11:00:11;;;;;;;2.90;1.20;;;18.00;99.90;;;;;;5031248;28;20459;-57
2022/05/15 11:03:10;;;;;;;1.80;1.00;;;18.10;99.90;;;;;;5031023;28;20417;-54
2022/05/15 11:06:00;;;;;;;2.15;1.00;;;18.20;99.90;;;;;;5029606;28;20431;-54
2022/05/15 11:08:44;;;;;;;1.67;1.10;;;18.20;99.90;;;;;;5028408;28;20394;-56
2022/05/15 11:11:38;;;;;;;1.80;0.90;;;18.20;99.90;;;;;;5028445;28;20398;-55
2022/05/15 11:14:41;;;;;;;1.87;0.90;;;18.10;99.90;;;;;;5029826;28;20406;-54
2022/05/15 11:17:59;;;;;;;2.28;0.85;;;18.30;99.90;;;;;;5029311;28;20560;-56
2022/05/15 11:20:56;;;;;;;1.77;0.70;;;18.40;99.90;;;;;;5026067;28;20426;-52
2022/05/15 11:23:49;;;;;;;1.30;0.80;;;18.60;99.90;;;;;;5030591;28;20644;-52
2022/05/15 11:26:47;;;;;;;2.70;1.10;;;18.80;99.90;;;;;;5024507;28;20383;-57
2022/05/15 11:29:15;;;;;;;2.72;1.02;;;19.10;99.90;;;;;;4967296;28;20754;-55
2022/05/15 11:31:50;;;;;;;1.40;0.90;;;19.40;99.90;;;;;;5023135;28;20794;-52
2022/05/15 11:34:16;;;;;;;3.03;1.20;;;19.60;99.90;;;;;;5024810;28;20387;-57
2022/05/15 11:36:45;;;;;;;3.00;1.00;;;19.90;99.90;;;;;;5022455;28;20411;-53
2022/05/15 11:39:13;;;;;;;2.30;0.95;;;20.20;99.90;;;;;;5023365;28;20472;-52
2022/05/15 11:41:39;;;;;;;2.15;1.05;;;20.40;99.90;;;;;;5023589;28;20493;-53
2022/05/15 11:44:06;;;;;;;1.87;1.00;;;20.50;99.90;;;;;;5022514;28;20470;-53
2022/05/15 11:46:46;;;;;;;1.20;0.70;;;20.40;99.90;;;;;;5020905;28;20409;-55
2022/05/15 11:49:17;;;;;;;1.85;0.98;;;20.50;99.90;;;;;;5019903;28;20767;-53
2022/05/15 11:51:56;;;;;;;2.30;0.90;;;20.60;99.90;;;;;;5018431;28;20395;-56
2022/05/15 11:54:56;;;;;;;1.08;0.77;;;20.90;99.90;;;;;;5019186;28;20387;-55
2022/05/15 11:57:41;;;;;;;1.48;0.90;;;21.30;99.90;;;;;;4974727;28;20516;-57
2022/05/15 12:00:23;;;;;;;1.57;0.87;;;21.60;99.90;;;;;;5019826;28;20800;-53
2022/05/15 12:02:53;;;;;;;1.90;1.00;;;21.80;99.90;;;;;;5018460;28;20433;-55
2022/05/15 12:05:56;;;;;;;1.48;0.88;;;22.00;99.90;;;;;;5019516;28;20749;-56
2022/05/15 12:08:42;;;;;;;2.15;0.80;;;22.20;99.90;;;;;;5020081;28;20448;-54
2022/05/15 12:17:59;;;;;;;1.30;0.90;;;22.70;99.90;;;;;;5024743;28;20438;-54
2022/05/15 12:20:28;;;;;;;1.63;1.23;;;22.80;99.90;;;;;;5025751;28;20465;-57
2022/05/15 12:23:20;;;;;;;1.38;1.00;;;22.90;99.90;;;;;;5021483;28;20429;-56
2022/05/15 12:26:20;;;;;;;1.45;0.93;;;23.00;99.90;;;;;;5019835;28;20453;-51
2022/05/15 12:28:52;;;;;;;1.92;1.05;;;23.20;99.90;;;;;;4924196;29;20401;-57
2022/05/15 12:31:30;;;;;;;1.40;0.95;;;23.40;99.90;;;;;;5015696;28;20501;-53
2022/05/15 12:34:22;;;;;;;1.52;1.10;;;23.60;99.90;;;;;;5025060;28;20462;-58
2022/05/15 12:36:58;;;;;;;3.00;1.20;;;23.60;99.90;;;;;;5025122;28;20831;-56
2022/05/15 12:39:28;;;;;;;1.70;1.15;;;23.30;99.90;;;;;;5027930;28;20886;-56
2022/05/15 12:42:00;;;;;;;3.03;1.13;;;22.70;99.90;;;;;;5025038;28;20907;-56
2022/05/15 12:44:32;;;;;;;2.97;1.17;;;22.00;99.90;;;;;;5024220;28;20406;-58
2022/05/15 12:47:09;;;;;;;2.55;1.30;;;22.10;99.90;;;;;;5025103;28;20405;-54
2022/05/15 12:49:35;;;;;;;2.20;1.10;;;22.00;99.90;;;;;;5026793;28;20527;-54
2022/05/15 12:52:11;;;;;;;2.43;1.20;;;22.10;99.90;;;;;;5026893;28;20486;-53
2022/05/15 12:54:37;;;;;;;2.10;1.30;;;22.30;99.90;;;;;;5028124;28;20383;-58
2022/05/15 12:57:07;;;;;;;3.70;1.30;;;22.30;99.90;;;;;;5025508;28;20419;-57
2022/05/15 12:59:39;;;;;;;2.30;1.05;;;22.40;99.90;;;;;;5023928;28;20431;-54
2022/05/15 13:02:21;;;;;;;1.83;1.10;;;23.00;99.90;;;;;;5023013;28;20456;-56
2022/05/15 13:04:50;;;;;;;1.63;1.15;;;23.50;99.90;;;;;;4996164;28;20465;-55
2022/05/15 13:07:30;;;;;;;1.70;1.17;;;23.90;99.90;;;;;;5015840;28;20405;-55
2022/05/15 13:09:59;;;;;;;3.50;1.35;;;24.30;99.90;;;;;;5031570;28;20393;-57
2022/05/15 13:12:25;;;;;;;2.35;1.17;;;24.30;99.90;;;;;;5029684;28;20458;-57
2022/05/15 13:14:51;;;;;;;3.40;1.17;;;24.00;99.90;;;;;;5043542;28;20397;-51
2022/05/15 13:17:36;;;;;;;2.55;1.40;;;23.70;99.90;;;;;;5025654;28;20739;-56
2022/05/15 13:20:26;;;;;;;1.85;1.00;;;23.40;99.90;;;;;;5027690;28;20389;-50
2022/05/15 13:22:55;;;;;;;1.80;1.40;;;23.90;99.90;;;;;;5027287;28;20675;-55
2022/05/15 13:25:28;;;;;;;1.70;0.90;;;24.00;99.90;;;;;;5027722;28;20657;-51
2022/05/15 13:27:57;;;;;;;1.60;1.05;;;24.70;99.90;;;;;;5029987;28;20701;-57
2022/05/15 13:30:25;;;;;;;2.50;1.27;;;25.00;99.90;;;;;;5047817;28;20469;-57
2022/05/15 13:33:03;;;;;;;1.70;1.15;;;25.20;99.90;;;;;;5031136;28;20405;-54
2022/05/15 13:35:43;;;;;;;2.23;1.20;;;25.60;99.90;;;;;;5029752;28;20402;-55
2022/05/15 13:38:17;;;;;;;2.05;1.15;;;25.50;99.90;;;;;;5045179;28;20409;-54